sensor_id;sensor_type;location;lat;lon;timestamp;P1;durP1;ratioP1;P2;durP2;ratioP2
59127;SDS011;44912;52.754;5.994;2023-02-24T00:00:21;9.77;;;1.75;;
59127;SDS011;44912;52.754;5.994;2023-02-24T00:02:59;11.35;;;1.75;;
59127;SDS011;44912;52.754;5.994;2023-02-24T00:05:35;10.27;;;2.20;;
59127;SDS011;44912;52.754;5.994;2023-02-24T00:08:03;10.35;;;1.77;;
59127;SDS011;44912;52.754;5.994;2023-02-24T00:10:28;7.70;;;1.48;;
59127;SDS011;44912;52.754;5.994;2023-02-24T00:12:54;9.90;;;1.90;;
59127;SDS011;44912;52.754;5.994;2023-02-24T00:15:19;9.23;;;1.45;;
59127;SDS011;44912;52.754;5.994;2023-02-24T00:17:45;9.60;;;1.60;;
59127;SDS011;44912;52.754;5.994;2023-02-24T00:20:11;7.63;;;1.67;;
59127;SDS011;44912;52.754;5.994;2023-02-24T00:22:38;8.05;;;1.65;;
59127;SDS011;44912;52.754;5.994;2023-02-24T00:25:04;12.70;;;2.00;;
59127;SDS011;44912;52.754;5.994;2023-02-24T00:27:30;9.85;;;1.40;;
59127;SDS011;44912;52.754;5.994;2023-02-24T00:29:56;5.97;;;1.50;;
59127;SDS011;44912;52.754;5.994;2023-02-24T00:32:22;8.43;;;1.70;;
59127;SDS011;44912;52.754;5.994;2023-02-24T00:34:47;7.93;;;1.38;;
59127;SDS011;44912;52.754;5.994;2023-02-24T00:37:13;9.88;;;1.50;;
59127;SDS011;44912;52.754;5.994;2023-02-24T00:39:47;7.97;;;1.55;;
59127;SDS011;44912;52.754;5.994;2023-02-24T00:42:13;8.57;;;1.60;;
59127;SDS011;44912;52.754;5.994;2023-02-24T00:44:40;6.85;;;1.83;;
59127;SDS011;44912;52.754;5.994;2023-02-24T00:47:09;11.18;;;1.40;;
59127;SDS011;44912;52.754;5.994;2023-02-24T00:49:36;12.77;;;1.95;;
59127;SDS011;44912;52.754;5.994;2023-02-24T00:52:07;6.72;;;1.40;;
59127;SDS011;44912;52.754;5.994;2023-02-24T00:54:40;9.18;;;1.52;;
59127;SDS011;44912;52.754;5.994;2023-02-24T00:57:07;8.13;;;1.73;;
59127;SDS011;44912;52.754;5.994;2023-02-24T00:59:33;11.38;;;1.55;;
59127;SDS011;44912;52.754;5.994;2023-02-24T01:02:00;9.48;;;1.45;;
59127;SDS011;44912;52.754;5.994;2023-02-24T01:04:27;8.52;;;1.33;;
59127;SDS011;44912;52.754;5.994;2023-02-24T01:06:54;7.05;;;1.30;;
59127;SDS011;44912;52.754;5.994;2023-02-24T01:09:28;7.10;;;1.30;;
59127;SDS011;44912;52.754;5.994;2023-02-24T01:11:55;7.78;;;1.30;;
59127;SDS011;44912;52.754;5.994;2023-02-24T01:14:41;8.32;;;1.50;;
59127;SDS011;44912;52.754;5.994;2023-02-24T01:17:08;6.72;;;1.33;;
59127;SDS011;44912;52.754;5.994;2023-02-24T01:19:33;6.85;;;1.30;;
59127;SDS011;44912;52.754;5.994;2023-02-24T01:22:01;11.57;;;2.00;;
59127;SDS011;44912;52.754;5.994;2023-02-24T01:24:34;8.07;;;1.70;;
59127;SDS011;44912;52.754;5.994;2023-02-24T01:27:02;7.40;;;1.48;;
59127;SDS011;44912;52.754;5.994;2023-02-24T01:29:28;8.93;;;1.42;;
59127;SDS011;44912;52.754;5.994;2023-02-24T01:31:54;9.95;;;1.40;;
59127;SDS011;44912;52.754;5.994;2023-02-24T01:34:25;8.05;;;1.58;;
59127;SDS011;44912;52.754;5.994;2023-02-24T01:36:51;7.85;;;1.70;;
59127;SDS011;44912;52.754;5.994;2023-02-24T01:39:17;10.15;;;1.52;;
59127;SDS011;44912;52.754;5.994;2023-02-24T01:41:44;9.20;;;1.73;;
59127;SDS011;44912;52.754;5.994;2023-02-24T01:46:45;10.80;;;1.40;;
59127;SDS011;44912;52.754;5.994;2023-02-24T01:52:11;8.13;;;1.83;;
59127;SDS011;44912;52.754;5.994;2023-02-24T01:54:48;9.93;;;2.17;;
59127;SDS011;44912;52.754;5.994;2023-02-24T01:57:20;8.27;;;1.48;;
59127;SDS011;44912;52.754;5.994;2023-02-24T01:59:48;9.68;;;1.80;;
59127;SDS011;44912;52.754;5.994;2023-02-24T02:02:16;7.97;;;1.50;;
59127;SDS011;44912;52.754;5.994;2023-02-24T02:04:45;7.47;;;1.13;;
59127;SDS011;44912;52.754;5.994;2023-02-24T02:07:17;12.80;;;1.52;;
59127;SDS011;44912;52.754;5.994;2023-02-24T02:09:46;9.45;;;1.30;;
59127;SDS011;44912;52.754;5.994;2023-02-24T02:12:13;9.57;;;1.75;;
59127;SDS011;44912;52.754;5.994;2023-02-24T02:14:40;11.45;;;1.60;;
59127;SDS011;44912;52.754;5.994;2023-02-24T02:22:40;9.60;;;1.70;;
59127;SDS011;44912;52.754;5.994;2023-02-24T02:25:37;10.25;;;1.60;;
59127;SDS011;44912;52.754;5.994;2023-02-24T02:34:11;8.93;;;1.52;;
59127;SDS011;44912;52.754;5.994;2023-02-24T02:36:50;6.07;;;1.40;;
59127;SDS011;44912;52.754;5.994;2023-02-24T02:42:18;7.60;;;1.38;;
59127;SDS011;44912;52.754;5.994;2023-02-24T02:44:58;10.18;;;1.60;;
59127;SDS011;44912;52.754;5.994;2023-02-24T02:47:47;14.55;;;2.17;;
59127;SDS011;44912;52.754;5.994;2023-02-24T02:52:57;14.07;;;1.58;;
59127;SDS011;44912;52.754;5.994;2023-02-24T02:55:40;9.18;;;1.55;;
59127;SDS011;44912;52.754;5.994;2023-02-24T02:58:18;11.23;;;1.58;;
59127;SDS011;44912;52.754;5.994;2023-02-24T03:00:57;9.77;;;1.90;;
59127;SDS011;44912;52.754;5.994;2023-02-24T03:03:29;6.90;;;1.60;;
59127;SDS011;44912;52.754;5.994;2023-02-24T03:06:08;7.05;;;1.50;;
59127;SDS011;44912;52.754;5.994;2023-02-24T03:08:43;8.73;;;1.30;;
59127;SDS011;44912;52.754;5.994;2023-02-24T03:11:16;6.72;;;1.45;;
59127;SDS011;44912;52.754;5.994;2023-02-24T03:13:44;5.50;;;1.20;;
59127;SDS011;44912;52.754;5.994;2023-02-24T03:16:13;8.80;;;1.40;;
59127;SDS011;44912;52.754;5.994;2023-02-24T03:18:47;5.72;;;1.17;;
59127;SDS011;44912;52.754;5.994;2023-02-24T03:21:20;7.28;;;1.20;;
59127;SDS011;44912;52.754;5.994;2023-02-24T03:23:56;8.55;;;1.20;;
59127;SDS011;44912;52.754;5.994;2023-02-24T03:26:27;9.40;;;1.40;;
59127;SDS011;44912;52.754;5.994;2023-02-24T03:36:42;7.30;;;1.15;;
59127;SDS011;44912;52.754;5.994;2023-02-24T03:39:09;7.05;;;1.52;;
59127;SDS011;44912;52.754;5.994;2023-02-24T03:41:38;10.35;;;1.70;;
59127;SDS011;44912;52.754;5.994;2023-02-24T03:44:08;11.32;;;1.70;;
59127;SDS011;44912;52.754;5.994;2023-02-24T03:46:36;8.48;;;1.33;;
59127;SDS011;44912;52.754;5.994;2023-02-24T03:49:06;6.65;;;1.40;;
59127;SDS011;44912;52.754;5.994;2023-02-24T03:51:40;10.05;;;1.55;;
59127;SDS011;44912;52.754;5.994;2023-02-24T03:59:57;12.35;;;1.42;;
59127;SDS011;44912;52.754;5.994;2023-02-24T04:02:47;8.77;;;1.00;;
59127;SDS011;44912;52.754;5.994;2023-02-24T04:05:19;10.52;;;1.40;;
59127;SDS011;44912;52.754;5.994;2023-02-24T04:07:51;10.27;;;1.58;;
59127;SDS011;44912;52.754;5.994;2023-02-24T04:10:26;7.07;;;1.17;;
59127;SDS011;44912;52.754;5.994;2023-02-24T04:16:26;7.45;;;1.00;;
59127;SDS011;44912;52.754;5.994;2023-02-24T04:18:54;9.00;;;1.70;;
59127;SDS011;44912;52.754;5.994;2023-02-24T04:21:22;9.85;;;1.42;;
59127;SDS011;44912;52.754;5.994;2023-02-24T04:23:54;7.60;;;1.17;;
59127;SDS011;44912;52.754;5.994;2023-02-24T04:26:20;11.75;;;1.67;;
59127;SDS011;44912;52.754;5.994;2023-02-24T04:28:49;10.02;;;1.40;;
59127;SDS011;44912;52.754;5.994;2023-02-24T04:31:15;10.00;;;1.70;;
59127;SDS011;44912;52.754;5.994;2023-02-24T04:33:43;9.50;;;1.52;;
59127;SDS011;44912;52.754;5.994;2023-02-24T04:36:14;11.60;;;1.35;;
59127;SDS011;44912;52.754;5.994;2023-02-24T04:38:41;7.72;;;1.50;;
59127;SDS011;44912;52.754;5.994;2023-02-24T04:41:06;10.93;;;1.38;;
59127;SDS011;44912;52.754;5.994;2023-02-24T04:43:32;8.40;;;1.40;;
59127;SDS011;44912;52.754;5.994;2023-02-24T04:45:58;8.77;;;1.30;;
59127;SDS011;44912;52.754;5.994;2023-02-24T04:48:23;13.32;;;1.70;;
59127;SDS011;44912;52.754;5.994;2023-02-24T04:50:49;12.57;;;1.83;;
59127;SDS011;44912;52.754;5.994;2023-02-24T04:53:19;13.52;;;1.70;;
59127;SDS011;44912;52.754;5.994;2023-02-24T04:55:50;8.80;;;1.48;;
59127;SDS011;44912;52.754;5.994;2023-02-24T04:58:20;8.57;;;1.50;;
59127;SDS011;44912;52.754;5.994;2023-02-24T05:00:48;13.02;;;2.20;;
59127;SDS011;44912;52.754;5.994;2023-02-24T05:03:16;12.02;;;2.08;;
59127;SDS011;44912;52.754;5.994;2023-02-24T05:05:50;10.30;;;1.85;;
59127;SDS011;44912;52.754;5.994;2023-02-24T05:08:21;8.32;;;1.50;;
59127;SDS011;44912;52.754;5.994;2023-02-24T05:10:48;11.10;;;1.55;;
59127;SDS011;44912;52.754;5.994;2023-02-24T05:13:16;10.75;;;1.77;;
59127;SDS011;44912;52.754;5.994;2023-02-24T05:15:56;9.38;;;1.23;;
59127;SDS011;44912;52.754;5.994;2023-02-24T05:18:27;5.63;;;1.20;;
59127;SDS011;44912;52.754;5.994;2023-02-24T05:21:02;5.97;;;1.45;;
59127;SDS011;44912;52.754;5.994;2023-02-24T05:23:52;6.80;;;2.13;;
59127;SDS011;44912;52.754;5.994;2023-02-24T05:26:19;10.65;;;1.75;;
59127;SDS011;44912;52.754;5.994;2023-02-24T05:28:46;10.60;;;1.70;;
59127;SDS011;44912;52.754;5.994;2023-02-24T05:31:17;7.78;;;1.60;;
59127;SDS011;44912;52.754;5.994;2023-02-24T05:33:46;8.93;;;1.40;;
59127;SDS011;44912;52.754;5.994;2023-02-24T05:36:14;5.78;;;1.08;;
59127;SDS011;44912;52.754;5.994;2023-02-24T05:38:45;10.38;;;1.75;;
59127;SDS011;44912;52.754;5.994;2023-02-24T05:41:13;10.73;;;1.85;;
59127;SDS011;44912;52.754;5.994;2023-02-24T05:43:47;11.70;;;1.75;;
59127;SDS011;44912;52.754;5.994;2023-02-24T05:46:19;8.90;;;1.95;;
59127;SDS011;44912;52.754;5.994;2023-02-24T05:48:55;14.25;;;2.30;;
59127;SDS011;44912;52.754;5.994;2023-02-24T05:51:25;10.07;;;1.70;;
59127;SDS011;44912;52.754;5.994;2023-02-24T05:53:52;10.32;;;1.60;;
59127;SDS011;44912;52.754;5.994;2023-02-24T05:56:20;10.95;;;1.90;;
59127;SDS011;44912;52.754;5.994;2023-02-24T05:58:49;12.70;;;2.20;;
59127;SDS011;44912;52.754;5.994;2023-02-24T06:01:25;12.75;;;2.35;;
59127;SDS011;44912;52.754;5.994;2023-02-24T06:03:55;11.95;;;2.22;;
59127;SDS011;44912;52.754;5.994;2023-02-24T06:06:29;14.20;;;2.03;;
59127;SDS011;44912;52.754;5.994;2023-02-24T06:09:11;16.25;;;2.65;;
59127;SDS011;44912;52.754;5.994;2023-02-24T06:11:38;14.45;;;3.08;;
59127;SDS011;44912;52.754;5.994;2023-02-24T06:14:05;13.45;;;4.10;;
59127;SDS011;44912;52.754;5.994;2023-02-24T06:16:32;10.82;;;2.70;;
59127;SDS011;44912;52.754;5.994;2023-02-24T06:18:59;12.70;;;2.83;;
59127;SDS011;44912;52.754;5.994;2023-02-24T06:21:24;14.02;;;3.42;;
59127;SDS011;44912;52.754;5.994;2023-02-24T06:23:53;12.63;;;3.40;;
59127;SDS011;44912;52.754;5.994;2023-02-24T06:26:20;13.23;;;3.63;;
59127;SDS011;44912;52.754;5.994;2023-02-24T06:28:46;13.88;;;3.20;;
59127;SDS011;44912;52.754;5.994;2023-02-24T06:31:12;18.17;;;4.32;;
59127;SDS011;44912;52.754;5.994;2023-02-24T06:33:39;16.80;;;4.15;;
59127;SDS011;44912;52.754;5.994;2023-02-24T06:36:06;13.85;;;3.92;;
59127;SDS011;44912;52.754;5.994;2023-02-24T06:38:33;15.45;;;3.67;;
59127;SDS011;44912;52.754;5.994;2023-02-24T06:41:00;14.68;;;3.95;;
59127;SDS011;44912;52.754;5.994;2023-02-24T06:43:35;13.93;;;3.60;;
59127;SDS011;44912;52.754;5.994;2023-02-24T06:46:02;16.17;;;3.72;;
59127;SDS011;44912;52.754;5.994;2023-02-24T06:48:29;17.92;;;4.10;;
59127;SDS011;44912;52.754;5.994;2023-02-24T06:50:57;15.07;;;4.10;;
59127;SDS011;44912;52.754;5.994;2023-02-24T06:53:27;13.60;;;3.30;;
59127;SDS011;44912;52.754;5.994;2023-02-24T06:55:52;14.13;;;3.42;;
59127;SDS011;44912;52.754;5.994;2023-02-24T06:58:19;16.52;;;3.65;;
59127;SDS011;44912;52.754;5.994;2023-02-24T07:00:47;15.30;;;4.18;;
59127;SDS011;44912;52.754;5.994;2023-02-24T07:03:23;14.95;;;3.72;;
59127;SDS011;44912;52.754;5.994;2023-02-24T07:06:03;16.35;;;3.53;;
59127;SDS011;44912;52.754;5.994;2023-02-24T07:08:44;18.40;;;3.38;;
59127;SDS011;44912;52.754;5.994;2023-02-24T07:11:11;12.98;;;2.97;;
59127;SDS011;44912;52.754;5.994;2023-02-24T07:13:38;16.15;;;3.25;;
59127;SDS011;44912;52.754;5.994;2023-02-24T07:16:05;18.73;;;3.90;;
59127;SDS011;44912;52.754;5.994;2023-02-24T07:18:35;14.73;;;3.60;;
59127;SDS011;44912;52.754;5.994;2023-02-24T07:21:04;14.93;;;3.17;;
59127;SDS011;44912;52.754;5.994;2023-02-24T07:23:35;15.77;;;3.13;;
59127;SDS011;44912;52.754;5.994;2023-02-24T07:26:06;13.95;;;3.03;;
59127;SDS011;44912;52.754;5.994;2023-02-24T07:28:36;15.05;;;3.25;;
59127;SDS011;44912;52.754;5.994;2023-02-24T07:31:06;13.20;;;3.20;;
59127;SDS011;44912;52.754;5.994;2023-02-24T07:33:34;15.50;;;2.38;;
59127;SDS011;44912;52.754;5.994;2023-02-24T07:36:06;12.00;;;3.13;;
59127;SDS011;44912;52.754;5.994;2023-02-24T07:38:39;20.05;;;3.33;;
59127;SDS011;44912;52.754;5.994;2023-02-24T07:41:06;15.57;;;3.35;;
59127;SDS011;44912;52.754;5.994;2023-02-24T07:43:34;18.10;;;3.50;;
59127;SDS011;44912;52.754;5.994;2023-02-24T07:46:11;16.08;;;3.13;;
59127;SDS011;44912;52.754;5.994;2023-02-24T07:48:39;17.20;;;4.05;;
59127;SDS011;44912;52.754;5.994;2023-02-24T07:51:06;15.73;;;3.47;;
59127;SDS011;44912;52.754;5.994;2023-02-24T07:53:33;14.82;;;2.70;;
59127;SDS011;44912;52.754;5.994;2023-02-24T07:56:04;20.63;;;3.38;;
59127;SDS011;44912;52.754;5.994;2023-02-24T07:58:40;17.75;;;3.20;;
59127;SDS011;44912;52.754;5.994;2023-02-24T08:01:15;17.13;;;3.00;;
59127;SDS011;44912;52.754;5.994;2023-02-24T08:03:48;15.70;;;3.03;;
59127;SDS011;44912;52.754;5.994;2023-02-24T08:06:16;12.98;;;3.50;;
59127;SDS011;44912;52.754;5.994;2023-02-24T08:08:51;18.00;;;4.10;;
59127;SDS011;44912;52.754;5.994;2023-02-24T08:11:40;24.02;;;4.00;;
59127;SDS011;44912;52.754;5.994;2023-02-24T08:14:10;19.10;;;3.80;;
59127;SDS011;44912;52.754;5.994;2023-02-24T08:16:40;19.02;;;3.35;;
59127;SDS011;44912;52.754;5.994;2023-02-24T08:19:14;20.38;;;4.03;;
59127;SDS011;44912;52.754;5.994;2023-02-24T08:21:45;19.58;;;4.03;;
59127;SDS011;44912;52.754;5.994;2023-02-24T08:24:15;19.95;;;5.47;;
59127;SDS011;44912;52.754;5.994;2023-02-24T08:26:43;17.58;;;4.28;;
59127;SDS011;44912;52.754;5.994;2023-02-24T08:29:17;17.88;;;4.15;;
59127;SDS011;44912;52.754;5.994;2023-02-24T08:31:44;18.90;;;4.55;;
59127;SDS011;44912;52.754;5.994;2023-02-24T08:34:10;27.48;;;5.50;;
59127;SDS011;44912;52.754;5.994;2023-02-24T08:36:40;17.73;;;4.85;;
59127;SDS011;44912;52.754;5.994;2023-02-24T08:39:12;24.17;;;5.32;;
59127;SDS011;44912;52.754;5.994;2023-02-24T08:41:38;20.23;;;4.32;;
59127;SDS011;44912;52.754;5.994;2023-02-24T08:44:15;20.88;;;6.00;;
59127;SDS011;44912;52.754;5.994;2023-02-24T08:46:44;26.63;;;5.72;;
59127;SDS011;44912;52.754;5.994;2023-02-24T08:49:14;24.38;;;5.68;;
59127;SDS011;44912;52.754;5.994;2023-02-24T08:51:42;21.30;;;5.53;;
59127;SDS011;44912;52.754;5.994;2023-02-24T08:54:10;21.65;;;5.15;;
59127;SDS011;44912;52.754;5.994;2023-02-24T08:56:47;21.95;;;4.95;;
59127;SDS011;44912;52.754;5.994;2023-02-24T08:59:14;18.48;;;5.30;;
59127;SDS011;44912;52.754;5.994;2023-02-24T09:02:00;21.67;;;5.55;;
59127;SDS011;44912;52.754;5.994;2023-02-24T09:07:26;25.00;;;6.22;;
59127;SDS011;44912;52.754;5.994;2023-02-24T09:09:53;20.27;;;5.43;;
59127;SDS011;44912;52.754;5.994;2023-02-24T09:12:26;16.23;;;5.22;;
59127;SDS011;44912;52.754;5.994;2023-02-24T09:15:00;16.73;;;6.55;;
59127;SDS011;44912;52.754;5.994;2023-02-24T09:17:31;18.48;;;6.43;;
59127;SDS011;44912;52.754;5.994;2023-02-24T09:20:10;16.05;;;5.97;;
59127;SDS011;44912;52.754;5.994;2023-02-24T09:22:56;24.10;;;6.65;;
59127;SDS011;44912;52.754;5.994;2023-02-24T09:25:28;20.05;;;6.03;;
59127;SDS011;44912;52.754;5.994;2023-02-24T09:28:26;18.35;;;6.28;;
59127;SDS011;44912;52.754;5.994;2023-02-24T09:30:57;19.15;;;6.25;;
59127;SDS011;44912;52.754;5.994;2023-02-24T09:33:28;17.27;;;7.07;;
59127;SDS011;44912;52.754;5.994;2023-02-24T09:36:10;16.10;;;7.20;;
59127;SDS011;44912;52.754;5.994;2023-02-24T09:38:38;15.93;;;5.53;;
59127;SDS011;44912;52.754;5.994;2023-02-24T09:41:31;16.83;;;6.00;;
59127;SDS011;44912;52.754;5.994;2023-02-24T09:44:31;17.35;;;7.85;;
59127;SDS011;44912;52.754;5.994;2023-02-24T09:49:46;15.13;;;7.13;;
59127;SDS011;44912;52.754;5.994;2023-02-24T09:52:20;13.35;;;5.80;;
59127;SDS011;44912;52.754;5.994;2023-02-24T09:55:03;16.70;;;7.15;;
59127;SDS011;44912;52.754;5.994;2023-02-24T09:57:54;14.15;;;7.18;;
59127;SDS011;44912;52.754;5.994;2023-02-24T10:00:47;16.45;;;7.85;;
59127;SDS011;44912;52.754;5.994;2023-02-24T10:03:44;16.00;;;7.65;;
59127;SDS011;44912;52.754;5.994;2023-02-24T10:06:20;14.90;;;6.93;;
59127;SDS011;44912;52.754;5.994;2023-02-24T10:11:36;13.97;;;7.43;;
59127;SDS011;44912;52.754;5.994;2023-02-24T10:14:17;11.63;;;5.38;;
59127;SDS011;44912;52.754;5.994;2023-02-24T10:17:07;15.48;;;7.38;;
59127;SDS011;44912;52.754;5.994;2023-02-24T10:19:54;17.73;;;7.25;;
59127;SDS011;44912;52.754;5.994;2023-02-24T10:31:31;22.77;;;9.43;;
59127;SDS011;44912;52.754;5.994;2023-02-24T10:33:49;14.82;;;6.68;;
59127;SDS011;44912;52.754;5.994;2023-02-24T10:36:21;19.95;;;8.27;;
59127;SDS011;44912;52.754;5.994;2023-02-24T10:39:00;20.38;;;6.50;;
59127;SDS011;44912;52.754;5.994;2023-02-24T10:44:09;28.55;;;6.50;;
59127;SDS011;44912;52.754;5.994;2023-02-24T10:46:35;28.55;;;4.68;;
59127;SDS011;44912;52.754;5.994;2023-02-24T10:49:02;24.92;;;4.88;;
59127;SDS011;44912;52.754;5.994;2023-02-24T10:51:40;19.40;;;4.07;;
59127;SDS011;44912;52.754;5.994;2023-02-24T10:54:13;26.55;;;5.07;;
59127;SDS011;44912;52.754;5.994;2023-02-24T10:56:49;24.55;;;4.22;;
59127;SDS011;44912;52.754;5.994;2023-02-24T10:59:52;22.98;;;4.00;;
59127;SDS011;44912;52.754;5.994;2023-02-24T11:02:51;20.33;;;4.35;;
59127;SDS011;44912;52.754;5.994;2023-02-24T11:05:34;29.52;;;5.57;;
59127;SDS011;44912;52.754;5.994;2023-02-24T11:08:12;31.20;;;4.20;;
59127;SDS011;44912;52.754;5.994;2023-02-24T11:11:00;25.58;;;4.63;;
59127;SDS011;44912;52.754;5.994;2023-02-24T11:13:31;27.77;;;4.80;;
59127;SDS011;44912;52.754;5.994;2023-02-24T11:16:16;26.73;;;5.15;;
59127;SDS011;44912;52.754;5.994;2023-02-24T11:19:00;30.83;;;5.70;;
59127;SDS011;44912;52.754;5.994;2023-02-24T11:21:26;25.40;;;4.30;;
59127;SDS011;44912;52.754;5.994;2023-02-24T11:23:53;22.45;;;3.97;;
59127;SDS011;44912;52.754;5.994;2023-02-24T11:26:23;25.60;;;4.75;;
59127;SDS011;44912;52.754;5.994;2023-02-24T11:34:40;27.60;;;4.50;;
59127;SDS011;44912;52.754;5.994;2023-02-24T11:39:55;27.58;;;4.07;;
59127;SDS011;44912;52.754;5.994;2023-02-24T11:45:11;31.15;;;4.80;;
59127;SDS011;44912;52.754;5.994;2023-02-24T11:48:12;23.00;;;4.55;;
59127;SDS011;44912;52.754;5.994;2023-02-24T11:50:45;26.35;;;4.70;;
59127;SDS011;44912;52.754;5.994;2023-02-24T11:55:56;27.45;;;5.60;;
59127;SDS011;44912;52.754;5.994;2023-02-24T11:58:33;25.27;;;4.18;;
59127;SDS011;44912;52.754;5.994;2023-02-24T12:06:20;24.50;;;5.07;;
59127;SDS011;44912;52.754;5.994;2023-02-24T12:08:53;24.17;;;5.65;;
59127;SDS011;44912;52.754;5.994;2023-02-24T12:14:20;24.83;;;4.97;;
59127;SDS011;44912;52.754;5.994;2023-02-24T12:16:53;25.90;;;4.90;;
59127;SDS011;44912;52.754;5.994;2023-02-24T12:19:32;24.93;;;4.50;;
59127;SDS011;44912;52.754;5.994;2023-02-24T12:22:08;16.67;;;3.60;;
59127;SDS011;44912;52.754;5.994;2023-02-24T12:24:38;26.33;;;5.93;;
59127;SDS011;44912;52.754;5.994;2023-02-24T12:35:35;17.83;;;4.53;;
59127;SDS011;44912;52.754;5.994;2023-02-24T12:41:49;17.88;;;2.88;;
59127;SDS011;44912;52.754;5.994;2023-02-24T12:47:19;19.77;;;3.60;;
59127;SDS011;44912;52.754;5.994;2023-02-24T12:52:47;18.30;;;3.15;;
59127;SDS011;44912;52.754;5.994;2023-02-24T12:58:06;18.60;;;3.55;;
59127;SDS011;44912;52.754;5.994;2023-02-24T13:06:28;20.20;;;3.75;;
59127;SDS011;44912;52.754;5.994;2023-02-24T13:14:56;22.05;;;3.35;;
59127;SDS011;44912;52.754;5.994;2023-02-24T13:17:23;15.73;;;2.65;;
59127;SDS011;44912;52.754;5.994;2023-02-24T13:19:51;21.90;;;3.05;;
59127;SDS011;44912;52.754;5.994;2023-02-24T13:22:20;13.90;;;2.33;;
59127;SDS011;44912;52.754;5.994;2023-02-24T13:25:02;9.65;;;1.30;;
59127;SDS011;44912;52.754;5.994;2023-02-24T13:27:41;9.68;;;2.13;;
59127;SDS011;44912;52.754;5.994;2023-02-24T13:32:37;7.43;;;1.30;;
59127;SDS011;44912;52.754;5.994;2023-02-24T13:35:47;6.20;;;1.20;;
59127;SDS011;44912;52.754;5.994;2023-02-24T13:38:05;5.05;;;1.08;;
59127;SDS011;44912;52.754;5.994;2023-02-24T13:40:32;7.75;;;0.80;;
59127;SDS011;44912;52.754;5.994;2023-02-24T13:42:59;9.38;;;1.30;;
59127;SDS011;44912;52.754;5.994;2023-02-24T13:45:30;6.00;;;1.00;;
59127;SDS011;44912;52.754;5.994;2023-02-24T13:48:09;9.57;;;1.60;;
59127;SDS011;44912;52.754;5.994;2023-02-24T13:50:59;13.13;;;2.10;;
59127;SDS011;44912;52.754;5.994;2023-02-24T13:57:08;14.25;;;4.15;;
59127;SDS011;44912;52.754;5.994;2023-02-24T14:02:46;14.43;;;3.05;;
59127;SDS011;44912;52.754;5.994;2023-02-24T14:05:30;18.25;;;4.45;;
59127;SDS011;44912;52.754;5.994;2023-02-24T14:07:58;13.88;;;2.35;;
59127;SDS011;44912;52.754;5.994;2023-02-24T14:10:26;10.48;;;2.00;;
59127;SDS011;44912;52.754;5.994;2023-02-24T14:13:02;12.02;;;2.22;;
59127;SDS011;44912;52.754;5.994;2023-02-24T14:15:42;12.18;;;1.88;;
59127;SDS011;44912;52.754;5.994;2023-02-24T14:18:25;10.40;;;1.67;;
59127;SDS011;44912;52.754;5.994;2023-02-24T14:20:53;11.32;;;2.08;;
59127;SDS011;44912;52.754;5.994;2023-02-24T14:23:21;12.75;;;2.25;;
59127;SDS011;44912;52.754;5.994;2023-02-24T14:25:53;13.00;;;3.13;;
59127;SDS011;44912;52.754;5.994;2023-02-24T14:28:23;11.13;;;2.17;;
59127;SDS011;44912;52.754;5.994;2023-02-24T14:31:02;10.93;;;1.95;;
59127;SDS011;44912;52.754;5.994;2023-02-24T14:33:34;11.75;;;2.20;;
59127;SDS011;44912;52.754;5.994;2023-02-24T14:36:02;10.52;;;2.40;;
59127;SDS011;44912;52.754;5.994;2023-02-24T14:38:34;9.68;;;1.98;;
59127;SDS011;44912;52.754;5.994;2023-02-24T14:41:03;12.70;;;3.05;;
59127;SDS011;44912;52.754;5.994;2023-02-24T14:43:30;10.70;;;2.40;;
59127;SDS011;44912;52.754;5.994;2023-02-24T14:45:56;14.20;;;3.03;;
59127;SDS011;44912;52.754;5.994;2023-02-24T14:48:28;15.02;;;4.45;;
59127;SDS011;44912;52.754;5.994;2023-02-24T14:51:00;21.20;;;4.65;;
59127;SDS011;44912;52.754;5.994;2023-02-24T14:53:29;15.80;;;4.03;;
59127;SDS011;44912;52.754;5.994;2023-02-24T14:55:56;13.15;;;3.17;;
59127;SDS011;44912;52.754;5.994;2023-02-24T14:58:27;15.82;;;2.70;;
59127;SDS011;44912;52.754;5.994;2023-02-24T15:01:04;11.80;;;2.63;;
59127;SDS011;44912;52.754;5.994;2023-02-24T15:03:46;15.32;;;2.40;;
59127;SDS011;44912;52.754;5.994;2023-02-24T15:06:23;18.35;;;3.88;;
59127;SDS011;44912;52.754;5.994;2023-02-24T15:09:05;21.55;;;4.32;;
59127;SDS011;44912;52.754;5.994;2023-02-24T15:11:44;14.88;;;2.90;;
59127;SDS011;44912;52.754;5.994;2023-02-24T15:14:29;17.40;;;4.32;;
59127;SDS011;44912;52.754;5.994;2023-02-24T15:16:57;24.85;;;7.53;;
59127;SDS011;44912;52.754;5.994;2023-02-24T15:19:34;24.23;;;5.32;;
59127;SDS011;44912;52.754;5.994;2023-02-24T15:24:47;14.43;;;2.85;;
59127;SDS011;44912;52.754;5.994;2023-02-24T15:29:39;18.50;;;2.92;;
59127;SDS011;44912;52.754;5.994;2023-02-24T15:32:13;11.93;;;2.63;;
59127;SDS011;44912;52.754;5.994;2023-02-24T15:34:43;11.23;;;2.00;;
59127;SDS011;44912;52.754;5.994;2023-02-24T15:37:24;12.07;;;2.42;;
59127;SDS011;44912;52.754;5.994;2023-02-24T15:39:54;11.25;;;2.63;;
59127;SDS011;44912;52.754;5.994;2023-02-24T15:42:39;11.73;;;2.75;;
59127;SDS011;44912;52.754;5.994;2023-02-24T15:45:29;14.45;;;3.03;;
59127;SDS011;44912;52.754;5.994;2023-02-24T15:48:00;11.93;;;2.05;;
59127;SDS011;44912;52.754;5.994;2023-02-24T15:50:28;11.68;;;1.70;;
59127;SDS011;44912;52.754;5.994;2023-02-24T15:52:55;13.23;;;2.10;;
59127;SDS011;44912;52.754;5.994;2023-02-24T15:55:23;10.63;;;1.85;;
59127;SDS011;44912;52.754;5.994;2023-02-24T15:57:56;20.88;;;5.95;;
59127;SDS011;44912;52.754;5.994;2023-02-24T16:00:24;21.20;;;5.75;;
59127;SDS011;44912;52.754;5.994;2023-02-24T16:02:50;9.93;;;2.00;;
59127;SDS011;44912;52.754;5.994;2023-02-24T16:05:16;12.95;;;2.35;;
59127;SDS011;44912;52.754;5.994;2023-02-24T16:07:42;13.55;;;1.90;;
59127;SDS011;44912;52.754;5.994;2023-02-24T16:10:23;14.63;;;2.30;;
59127;SDS011;44912;52.754;5.994;2023-02-24T16:12:56;16.25;;;2.15;;
59127;SDS011;44912;52.754;5.994;2023-02-24T16:15:25;16.60;;;2.60;;
59127;SDS011;44912;52.754;5.994;2023-02-24T16:17:53;15.38;;;2.33;;
59127;SDS011;44912;52.754;5.994;2023-02-24T16:20:23;14.00;;;2.42;;
59127;SDS011;44912;52.754;5.994;2023-02-24T16:22:59;14.15;;;2.80;;
59127;SDS011;44912;52.754;5.994;2023-02-24T16:25:26;13.13;;;1.85;;
59127;SDS011;44912;52.754;5.994;2023-02-24T16:27:54;10.15;;;2.03;;
59127;SDS011;44912;52.754;5.994;2023-02-24T16:30:25;11.88;;;1.80;;
59127;SDS011;44912;52.754;5.994;2023-02-24T16:32:54;14.95;;;2.47;;
59127;SDS011;44912;52.754;5.994;2023-02-24T16:35:21;10.48;;;1.95;;
59127;SDS011;44912;52.754;5.994;2023-02-24T16:37:46;8.38;;;1.88;;
59127;SDS011;44912;52.754;5.994;2023-02-24T16:40:19;13.40;;;2.00;;
59127;SDS011;44912;52.754;5.994;2023-02-24T16:42:47;13.23;;;2.00;;
59127;SDS011;44912;52.754;5.994;2023-02-24T16:45:13;13.60;;;2.42;;
59127;SDS011;44912;52.754;5.994;2023-02-24T16:47:39;15.80;;;2.58;;
59127;SDS011;44912;52.754;5.994;2023-02-24T16:50:05;14.35;;;2.15;;
59127;SDS011;44912;52.754;5.994;2023-02-24T16:52:33;16.25;;;2.33;;
59127;SDS011;44912;52.754;5.994;2023-02-24T16:54:58;16.88;;;3.40;;
59127;SDS011;44912;52.754;5.994;2023-02-24T16:57:26;20.60;;;3.63;;
59127;SDS011;44912;52.754;5.994;2023-02-24T16:59:51;15.43;;;2.78;;
59127;SDS011;44912;52.754;5.994;2023-02-24T17:02:17;19.33;;;3.70;;
59127;SDS011;44912;52.754;5.994;2023-02-24T17:04:46;23.58;;;3.83;;
59127;SDS011;44912;52.754;5.994;2023-02-24T17:07:13;23.10;;;5.07;;
59127;SDS011;44912;52.754;5.994;2023-02-24T17:09:40;19.98;;;4.63;;
59127;SDS011;44912;52.754;5.994;2023-02-24T17:12:05;21.40;;;4.38;;
59127;SDS011;44912;52.754;5.994;2023-02-24T17:14:31;20.15;;;4.30;;